Hokolo — CFC5374 — position and weather

sailwx.info

Track history (hours):
 
Tides and Currents Weather Stations Pressure Air Temp Water Temp Dewpoint Dewpoint Depression Visibility Wind Speed Wind Dir Waves Ship Positions

Hokolo

Last reported at 2017-Sep-23 21:54 UTC. Time now 2017-Nov-23 05:38 UTC.
Position N 49°07' W 123°11'.
Warning: this ship's position is months out of date.

Length 21 m.

Type: Fishing. MMSI: 316011572.

Date/timePositionNaut miles runAvg speedWind from/ knotsBaromVisibWave heightAir tempDewpointWater temp
2017-Sep-23 21:54N 49°07' W 123°11'1 3.0
2017-Sep-23 21:31N 49°08' W 123°13'1 2.7
2017-Sep-23 21:01N 49°08' W 123°15'1 2.7
2017-Sep-23 20:29N 49°07' W 123°17'2 5.1
2017-Sep-23 20:01N 49°05' W 123°19'  
2017-Sep-20 20:21N 48°39' W 123°24'0 0.6
2017-Sep-20 20:00N 48°39' W 123°23'3 6.6
2017-Sep-20 19:30N 48°42' W 123°21'5 9.6
2017-Sep-20 19:00N 48°47' W 123°22'510.3
2017-Sep-20 18:28N 48°52' W 123°26'510.8
2017-Sep-20 18:00N 48°55' W 123°31'510.6
2017-Sep-20 17:30N 48°59' W 123°37'17 0.4
2017-Sep-18 22:15N 49°10' W 123°56'0 0.6
2017-Sep-18 22:00N 49°10' W 123°56'3 5.6
2017-Sep-18 21:30N 49°13' W 123°56'4 9.2
2017-Sep-18 21:00N 49°16' W 124°01'5 9.4
2017-Sep-18 20:30N 49°19' W 124°07'5 9.2
2017-Sep-18 20:00N 49°21' W 124°13'4 8.7
2017-Sep-18 19:30N 49°22' W 124°19'5 9.4
2017-Sep-18 18:58N 49°24' W 124°27'4 9.6
2017-Sep-18 18:30N 49°26' W 124°33'5 9.6
2017-Sep-18 18:00N 49°28' W 124°40'5 9.5
2017-Sep-18 17:26N 49°30' W 124°47'4 8.3
2017-Sep-18 16:59N 49°33' W 124°51'4 8.1
2017-Sep-18 16:30N 49°37' W 124°53'  
2017-Sep-15 23:19N 49°40' W 124°55'2 5.7
2017-Sep-15 23:00N 49°39' W 124°53'4 7.8
2017-Sep-15 22:30N 49°42' W 124°50'4 7.3
2017-Sep-15 22:00N 49°46' W 124°53'5 9.4
2017-Sep-15 21:30N 49°50' W 124°56'5 9.4
2017-Sep-15 21:00N 49°54' W 125°00'5 9.5
2017-Sep-15 20:30N 49°58' W 125°04'5 9.5
2017-Sep-15 20:00N 50°02' W 125°08'5 9.8
2017-Sep-15 19:30N 50°06' W 125°11'  
Track history (hours):
 
Tides and Currents Weather Stations Pressure Air Temp Water Temp Dewpoint Dewpoint Depression Visibility Wind Speed Wind Dir Waves Ship Positions

Hokolo

Last reported at 2017-Sep-23 21:54 UTC. Time now 2017-Nov-23 05:38 UTC.
Position N 49°07' W 123°11'.
Warning: this ship's position is months out of date.

Length 21 m.

Type: Fishing. MMSI: 316011572.

Date/timePositionNaut miles runAvg speedWind from/ knotsBaromVisibWave heightAir tempDewpointWater temp
2017-Sep-23 21:54N 49°07' W 123°11'1 3.0
2017-Sep-23 21:31N 49°08' W 123°13'1 2.7
2017-Sep-23 21:01N 49°08' W 123°15'1 2.7
2017-Sep-23 20:29N 49°07' W 123°17'2 5.1
2017-Sep-23 20:01N 49°05' W 123°19'  
2017-Sep-20 20:21N 48°39' W 123°24'0 0.6
2017-Sep-20 20:00N 48°39' W 123°23'3 6.6
2017-Sep-20 19:30N 48°42' W 123°21'5 9.6
2017-Sep-20 19:00N 48°47' W 123°22'510.3
2017-Sep-20 18:28N 48°52' W 123°26'510.8
2017-Sep-20 18:00N 48°55' W 123°31'510.6
2017-Sep-20 17:30N 48°59' W 123°37'17 0.4
2017-Sep-18 22:15N 49°10' W 123°56'0 0.6
2017-Sep-18 22:00N 49°10' W 123°56'3 5.6
2017-Sep-18 21:30N 49°13' W 123°56'4 9.2
2017-Sep-18 21:00N 49°16' W 124°01'5 9.4
2017-Sep-18 20:30N 49°19' W 124°07'5 9.2
2017-Sep-18 20:00N 49°21' W 124°13'4 8.7
2017-Sep-18 19:30N 49°22' W 124°19'5 9.4
2017-Sep-18 18:58N 49°24' W 124°27'4 9.6
2017-Sep-18 18:30N 49°26' W 124°33'5 9.6
2017-Sep-18 18:00N 49°28' W 124°40'5 9.5
2017-Sep-18 17:26N 49°30' W 124°47'4 8.3
2017-Sep-18 16:59N 49°33' W 124°51'4 8.1
2017-Sep-18 16:30N 49°37' W 124°53'  
2017-Sep-15 23:19N 49°40' W 124°55'2 5.7
2017-Sep-15 23:00N 49°39' W 124°53'4 7.8
2017-Sep-15 22:30N 49°42' W 124°50'4 7.3
2017-Sep-15 22:00N 49°46' W 124°53'5 9.4
2017-Sep-15 21:30N 49°50' W 124°56'5 9.4
2017-Sep-15 21:00N 49°54' W 125°00'5 9.5
2017-Sep-15 20:30N 49°58' W 125°04'5 9.5
2017-Sep-15 20:00N 50°02' W 125°08'5 9.8
2017-Sep-15 19:30N 50°06' W 125°11'  

Dump ship's entire track history